createdAt,value
2019-03-28T00:00:46.570Z,7.87
2019-03-28T00:03:16.236Z,8.00
2019-03-28T00:05:46.706Z,7.97
2019-03-28T00:08:16.059Z,7.50
2019-03-28T00:10:45.445Z,6.83
2019-03-28T00:13:14.880Z,7.73
2019-03-28T00:15:44.255Z,7.80
2019-03-28T00:18:13.632Z,7.60
2019-03-28T00:20:43.040Z,8.27
2019-03-28T00:23:26.840Z,7.90
2019-03-28T00:25:56.219Z,7.97
2019-03-28T00:28:25.594Z,7.63
2019-03-28T00:30:55.985Z,7.90
2019-03-28T00:33:25.356Z,8.20
2019-03-28T00:35:54.728Z,8.00
2019-03-28T00:38:24.152Z,7.40
2019-03-28T00:40:53.573Z,7.37
2019-03-28T00:43:22.958Z,7.67
2019-03-28T00:45:52.411Z,7.27
2019-03-28T00:48:21.914Z,7.00
2019-03-28T00:50:51.276Z,8.33
2019-03-28T00:53:20.667Z,7.20
2019-03-28T00:55:50.054Z,7.03
2019-03-28T00:58:20.425Z,7.20
2019-03-28T01:00:49.792Z,6.50
2019-03-28T01:03:19.257Z,6.90
2019-03-28T01:05:48.625Z,6.87
2019-03-28T01:08:18.088Z,7.17
2019-03-28T01:10:47.486Z,7.30
2019-03-28T01:13:16.889Z,8.00
2019-03-28T01:15:46.261Z,6.63
2019-03-28T01:18:15.636Z,7.60
2019-03-28T01:20:45.031Z,7.03
2019-03-28T01:23:14.417Z,6.63
2019-03-28T01:25:44.087Z,6.63
2019-03-28T01:28:13.793Z,6.27
2019-03-28T01:30:43.175Z,5.17
2019-03-28T01:33:12.551Z,6.33
2019-03-28T01:35:42.904Z,6.33
2019-03-28T01:38:12.276Z,6.80
2019-03-28T01:40:41.672Z,6.07
2019-03-28T01:43:11.040Z,6.80
2019-03-28T01:45:41.496Z,7.57
2019-03-28T01:48:10.860Z,7.63
2019-03-28T01:50:41.114Z,7.20
2019-03-28T01:53:10.616Z,7.20
2019-03-28T01:55:39.991Z,6.73
2019-03-28T01:58:09.373Z,7.57
2019-03-28T02:00:38.834Z,7.63
2019-03-28T02:03:08.236Z,7.93
2019-03-28T02:05:37.617Z,6.60
2019-03-28T02:08:07.032Z,7.93
2019-03-28T02:10:36.407Z,7.60
2019-03-28T02:13:05.779Z,6.63
2019-03-28T02:15:35.195Z,7.13
2019-03-28T02:18:04.947Z,8.10
2019-03-28T02:20:34.376Z,7.80
2019-03-28T02:23:03.828Z,7.30
2019-03-28T02:25:33.236Z,8.10
2019-03-28T02:28:02.619Z,7.73
2019-03-28T02:30:32.592Z,8.00
2019-03-28T02:33:02.185Z,8.20
2019-03-28T02:35:31.616Z,8.60
2019-03-28T02:38:00.984Z,9.00
2019-03-28T02:40:30.338Z,7.90
2019-03-28T02:42:59.715Z,7.87
2019-03-28T02:45:30.066Z,7.60
2019-03-28T02:47:59.760Z,8.40
2019-03-28T02:50:29.203Z,7.83
2019-03-28T02:52:58.576Z,8.90
2019-03-28T02:55:27.934Z,8.20
2019-03-28T02:57:57.328Z,10.00
2019-03-28T03:00:32.704Z,8.50
2019-03-28T03:03:02.357Z,9.50
2019-03-28T03:05:31.733Z,10.07
2019-03-28T03:08:01.114Z,9.00
2019-03-28T03:10:30.474Z,9.93
2019-03-28T03:12:59.994Z,9.60
2019-03-28T03:15:30.111Z,9.97
2019-03-28T03:17:59.707Z,8.80
2019-03-28T03:20:29.087Z,8.13
2019-03-28T03:22:58.539Z,9.13
2019-03-28T03:25:28.307Z,8.60
2019-03-28T03:27:59.333Z,7.83
2019-03-28T03:30:31.119Z,8.80
2019-03-28T03:32:59.817Z,9.17
2019-03-28T03:35:29.461Z,8.97
2019-03-28T03:37:58.885Z,9.00
2019-03-28T03:40:28.325Z,9.17
2019-03-28T03:42:57.709Z,8.40
2019-03-28T03:45:27.181Z,8.77
2019-03-28T03:47:56.535Z,8.27
2019-03-28T03:50:26.692Z,8.80
2019-03-28T03:52:56.069Z,8.40
2019-03-28T03:55:25.431Z,9.40
2019-03-28T03:57:54.910Z,10.80
2019-03-28T04:00:29.844Z,9.77
2019-03-28T04:02:59.377Z,8.40
2019-03-28T04:05:28.752Z,9.23
2019-03-28T04:07:58.230Z,10.53
2019-03-28T04:10:27.937Z,9.33
2019-03-28T04:12:57.633Z,9.90
2019-03-28T04:15:27.133Z,9.13
2019-03-28T04:17:56.856Z,9.40
2019-03-28T04:20:26.285Z,11.20
2019-03-28T04:22:55.668Z,9.90
2019-03-28T04:25:25.050Z,11.10
2019-03-28T04:27:54.501Z,11.23
2019-03-28T04:30:23.876Z,10.83
2019-03-28T04:32:53.232Z,11.17
2019-03-28T04:35:22.893Z,10.83
2019-03-28T04:37:52.328Z,11.60
2019-03-28T04:40:21.713Z,11.77
2019-03-28T04:42:51.080Z,13.03
2019-03-28T04:45:20.476Z,12.40
2019-03-28T04:47:49.827Z,11.30
2019-03-28T04:50:19.211Z,13.30
2019-03-28T04:52:48.580Z,12.03
2019-03-28T04:55:17.964Z,12.50
2019-03-28T04:57:47.353Z,13.33
2019-03-28T05:00:17.082Z,13.43
2019-03-28T05:02:47.489Z,13.17
2019-03-28T05:05:16.939Z,12.80
2019-03-28T05:07:46.306Z,13.23
2019-03-28T05:10:15.764Z,13.30
2019-03-28T05:12:45.133Z,14.70
2019-03-28T05:15:14.588Z,14.50
2019-03-28T05:17:43.966Z,12.70
2019-03-28T05:20:13.760Z,12.80
2019-03-28T05:22:43.590Z,13.33
2019-03-28T05:25:12.956Z,13.43
2019-03-28T05:27:42.335Z,14.00
2019-03-28T05:30:12.101Z,13.30
2019-03-28T05:32:41.475Z,14.20
2019-03-28T05:35:10.927Z,12.77
2019-03-28T05:37:40.325Z,14.63
2019-03-28T05:40:10.999Z,14.23
2019-03-28T05:42:40.863Z,14.70
2019-03-28T05:45:10.379Z,14.83
2019-03-28T05:47:39.796Z,14.73
2019-03-28T05:50:09.353Z,14.93
2019-03-28T05:52:38.975Z,16.17
2019-03-28T05:55:08.344Z,14.80
2019-03-28T05:57:37.732Z,14.53
2019-03-28T06:00:08.473Z,14.13
2019-03-28T06:02:37.847Z,14.10
2019-03-28T06:05:07.406Z,13.70
2019-03-28T06:07:36.800Z,14.13
2019-03-28T06:10:06.272Z,14.57
2019-03-28T06:12:35.689Z,14.10
2019-03-28T06:15:05.517Z,14.10
2019-03-28T06:17:34.871Z,13.70
2019-03-28T06:20:05.191Z,14.20
2019-03-28T06:22:34.571Z,13.80
2019-03-28T06:25:05.961Z,13.53
2019-03-28T06:27:35.212Z,13.40
2019-03-28T06:30:04.977Z,13.60
2019-03-28T06:32:42.846Z,13.23
2019-03-28T06:35:06.687Z,14.10
2019-03-28T06:37:36.052Z,13.73
2019-03-28T06:40:05.840Z,13.50
2019-03-28T06:42:35.237Z,13.97
2019-03-28T06:45:05.448Z,14.37
2019-03-28T06:47:34.864Z,15.30
2019-03-28T06:50:04.968Z,14.03
2019-03-28T06:52:34.356Z,14.60
2019-03-28T06:55:03.990Z,15.10
2019-03-28T06:57:33.373Z,14.87
2019-03-28T07:00:02.752Z,13.70
2019-03-28T07:02:33.307Z,14.57
2019-03-28T07:05:03.017Z,14.50
2019-03-28T07:07:33.368Z,14.73
2019-03-28T07:10:03.452Z,15.00
2019-03-28T07:12:32.836Z,13.93
2019-03-28T07:15:02.351Z,14.77
2019-03-28T07:17:31.727Z,14.43
2019-03-28T07:20:01.165Z,15.43
2019-03-28T07:22:30.547Z,14.63
2019-03-28T07:24:59.920Z,14.27
2019-03-28T07:27:29.678Z,15.03
2019-03-28T07:29:59.040Z,13.40
2019-03-28T07:32:28.435Z,13.47
2019-03-28T07:34:57.819Z,11.97
2019-03-28T07:37:28.217Z,12.17
2019-03-28T07:39:57.872Z,12.60
2019-03-28T07:42:27.356Z,13.70
2019-03-28T07:44:56.736Z,12.97
2019-03-28T07:47:26.321Z,13.03
2019-03-28T07:49:55.832Z,13.17
2019-03-28T07:52:25.256Z,12.47
2019-03-28T07:54:54.632Z,11.30
2019-03-28T07:57:24.014Z,12.97
2019-03-28T08:00:03.457Z,11.57
2019-03-28T08:02:24.490Z,11.17
2019-03-28T08:04:53.912Z,11.70
2019-03-28T08:07:23.295Z,11.80
2019-03-28T08:09:52.696Z,11.53
2019-03-28T08:12:23.457Z,11.00
2019-03-28T08:14:53.071Z,11.63
2019-03-28T08:17:22.456Z,11.60
2019-03-28T08:19:51.875Z,10.90
2019-03-28T08:22:22.354Z,11.90
2019-03-28T08:24:51.752Z,10.90
2019-03-28T08:27:21.139Z,12.37
2019-03-28T08:29:53.284Z,11.17
2019-03-28T08:32:25.064Z,12.70
2019-03-28T08:34:55.792Z,12.07
2019-03-28T08:37:26.627Z,13.10
2019-03-28T08:39:56.047Z,12.20
2019-03-28T08:42:25.496Z,12.93
2019-03-28T08:44:54.891Z,12.27
2019-03-28T08:47:24.468Z,12.97
2019-03-28T08:49:53.889Z,13.40
2019-03-28T08:52:23.280Z,13.40
2019-03-28T08:54:52.749Z,14.47
2019-03-28T08:57:22.469Z,13.47
2019-03-28T08:59:51.863Z,13.83
2019-03-28T09:02:21.265Z,13.77
2019-03-28T09:04:50.636Z,14.00
2019-03-28T09:07:20.348Z,13.03
2019-03-28T09:09:49.762Z,12.13
2019-03-28T09:12:19.159Z,10.90
2019-03-28T09:14:48.595Z,11.00
2019-03-28T09:17:18.004Z,10.97
2019-03-28T09:19:47.441Z,10.50
2019-03-28T09:22:16.877Z,10.70
2019-03-28T09:24:46.561Z,10.63
2019-03-28T09:27:15.988Z,10.90
2019-03-28T09:29:45.419Z,10.33
2019-03-28T09:32:15.156Z,11.67
2019-03-28T09:34:44.601Z,10.30
2019-03-28T09:37:13.959Z,10.33
2019-03-28T09:39:43.335Z,9.37
2019-03-28T09:42:12.688Z,9.70
2019-03-28T09:44:42.375Z,9.87
2019-03-28T09:47:11.788Z,9.60
2019-03-28T09:49:41.173Z,10.03
2019-03-28T09:52:10.612Z,11.20
2019-03-28T09:54:40.018Z,9.07
2019-03-28T09:57:09.459Z,8.50
2019-03-28T09:59:38.902Z,9.90
2019-03-28T10:02:08.360Z,10.20
2019-03-28T10:04:37.783Z,9.80
2019-03-28T10:07:07.220Z,11.40
2019-03-28T10:09:36.775Z,9.93
2019-03-28T10:12:06.232Z,10.13
2019-03-28T10:14:35.948Z,9.13
2019-03-28T10:17:05.456Z,10.33
2019-03-28T10:19:34.892Z,9.93
2019-03-28T10:22:04.335Z,10.47
2019-03-28T10:24:33.765Z,10.20
2019-03-28T10:27:03.475Z,9.90
2019-03-28T10:29:32.887Z,9.43
2019-03-28T10:32:03.311Z,9.33
2019-03-28T10:34:32.779Z,9.70
2019-03-28T10:37:02.152Z,9.33
2019-03-28T10:39:31.797Z,8.60
2019-03-28T10:42:01.516Z,7.97
2019-03-28T10:44:31.909Z,7.97
2019-03-28T10:47:04.602Z,8.03
2019-03-28T10:49:32.413Z,7.90
2019-03-28T10:52:04.045Z,7.37
2019-03-28T10:54:32.948Z,8.17
2019-03-28T10:57:12.872Z,6.93
2019-03-28T10:59:33.419Z,5.47
2019-03-28T11:02:02.859Z,5.80
2019-03-28T11:04:32.275Z,5.70
2019-03-28T11:07:01.655Z,5.90
2019-03-28T11:09:31.014Z,6.90
2019-03-28T11:12:00.445Z,6.70
2019-03-28T11:14:29.824Z,5.90
2019-03-28T11:16:59.214Z,6.50
2019-03-28T11:19:28.603Z,5.90
2019-03-28T11:21:57.981Z,5.50
2019-03-28T11:24:27.604Z,6.93
2019-03-28T11:26:57.680Z,6.63
2019-03-28T11:29:27.253Z,6.50
2019-03-28T11:31:56.603Z,6.30
2019-03-28T11:34:26.099Z,6.63
2019-03-28T11:36:55.544Z,5.60
2019-03-28T11:39:24.992Z,6.70
2019-03-28T11:41:54.456Z,6.73
2019-03-28T11:44:24.897Z,6.40
2019-03-28T11:46:54.282Z,6.57
2019-03-28T11:49:23.645Z,6.57
2019-03-28T11:51:53.021Z,7.10
2019-03-28T11:54:22.385Z,7.50
2019-03-28T11:56:51.781Z,6.90
2019-03-28T11:59:21.188Z,7.50
2019-03-28T12:01:59.835Z,7.37
2019-03-28T12:04:22.685Z,7.37
2019-03-28T12:06:52.044Z,7.40
2019-03-28T12:09:21.413Z,6.57
2019-03-28T12:11:52.915Z,9.07
2019-03-28T12:14:22.419Z,6.93
2019-03-28T12:16:51.937Z,7.43
2019-03-28T12:19:21.297Z,8.70
2019-03-28T12:21:50.679Z,7.00
2019-03-28T12:24:20.035Z,6.73
2019-03-28T12:26:49.421Z,6.40
2019-03-28T12:29:19.091Z,7.87
2019-03-28T12:31:48.456Z,7.73
2019-03-28T12:34:17.866Z,7.30
2019-03-28T12:36:47.285Z,6.80
2019-03-28T12:39:16.835Z,7.10
2019-03-28T12:41:46.184Z,8.20
2019-03-28T12:44:15.560Z,8.17
2019-03-28T12:46:44.923Z,8.30
2019-03-28T12:49:14.287Z,6.90
2019-03-28T12:51:43.640Z,8.03
2019-03-28T12:54:13.011Z,7.43
2019-03-28T12:56:42.372Z,6.97
2019-03-28T12:59:11.927Z,6.70
2019-03-28T13:01:41.634Z,6.77
2019-03-28T13:04:11.003Z,6.90
2019-03-28T13:06:41.429Z,7.20
2019-03-28T13:09:10.800Z,6.50
2019-03-28T13:11:40.160Z,8.23
2019-03-28T13:14:09.545Z,7.00
2019-03-28T13:16:38.904Z,7.17
2019-03-28T13:19:08.275Z,6.50
2019-03-28T13:21:37.748Z,6.97
2019-03-28T13:24:07.931Z,5.30
2019-03-28T13:26:37.582Z,6.73
2019-03-28T13:29:07.023Z,7.73
2019-03-28T13:31:36.494Z,5.67
2019-03-28T13:34:05.840Z,6.77
2019-03-28T13:36:35.216Z,6.43
2019-03-28T13:39:05.996Z,5.80
2019-03-28T13:41:35.379Z,6.60
2019-03-28T13:44:04.803Z,5.37
2019-03-28T13:46:34.190Z,18.70
2019-03-28T13:49:03.624Z,17.53
2019-03-28T13:51:33.036Z,23.30
2019-03-28T13:54:02.423Z,6.83
2019-03-28T13:56:31.935Z,5.60
2019-03-28T13:59:01.319Z,5.97
2019-03-28T14:01:31.743Z,7.67
2019-03-28T14:04:01.128Z,5.70
2019-03-28T14:06:30.681Z,5.57
2019-03-28T14:09:00.267Z,6.00
2019-03-28T14:11:29.863Z,5.67
2019-03-28T14:13:59.233Z,6.60
2019-03-28T14:16:28.625Z,6.50
2019-03-28T14:18:58.005Z,6.57
2019-03-28T14:21:27.393Z,6.50
2019-03-28T14:23:56.773Z,7.10
2019-03-28T14:26:26.132Z,5.93
2019-03-28T14:28:55.502Z,7.33
2019-03-28T14:31:24.927Z,6.57
2019-03-28T14:33:54.403Z,6.70
2019-03-28T14:36:25.336Z,7.17
2019-03-28T14:38:54.927Z,7.43
2019-03-28T14:41:25.272Z,7.07
2019-03-28T14:43:54.649Z,7.57
2019-03-28T14:46:24.262Z,6.57
2019-03-28T14:48:53.642Z,7.23
2019-03-28T14:51:23.010Z,7.13
2019-03-28T14:53:52.363Z,7.10
2019-03-28T14:56:21.808Z,7.50
2019-03-28T14:58:52.708Z,6.10
2019-03-28T15:01:22.089Z,7.13
2019-03-28T15:03:51.462Z,6.20
2019-03-28T15:06:20.839Z,6.37
2019-03-28T15:08:50.211Z,6.10
2019-03-28T15:11:19.595Z,6.20
2019-03-28T15:13:49.027Z,5.80
2019-03-28T15:16:18.394Z,6.03
2019-03-28T15:18:47.756Z,5.03
2019-03-28T15:21:18.174Z,5.63
2019-03-28T15:23:47.568Z,5.40
2019-03-28T15:26:17.232Z,5.40
2019-03-28T15:28:46.664Z,5.73
2019-03-28T15:31:16.322Z,5.00
2019-03-28T15:33:45.691Z,5.53
2019-03-28T15:36:15.048Z,5.73
2019-03-28T15:38:44.438Z,5.60
2019-03-28T15:41:13.790Z,5.47
2019-03-28T15:43:43.483Z,4.87
2019-03-28T15:46:12.958Z,5.10
2019-03-28T15:48:42.684Z,4.87
2019-03-28T15:51:12.049Z,5.17
2019-03-28T15:53:41.410Z,5.40
2019-03-28T15:56:10.782Z,5.93
2019-03-28T15:58:40.158Z,5.13
2019-03-28T16:01:09.553Z,5.10
2019-03-28T16:03:52.107Z,4.83
2019-03-28T16:06:10.037Z,5.03
2019-03-28T16:08:40.667Z,5.07
2019-03-28T16:11:10.312Z,4.90
2019-03-28T16:13:39.663Z,4.90
2019-03-28T16:16:09.128Z,5.47
2019-03-28T16:18:39.643Z,5.20
2019-03-28T16:21:09.207Z,5.83
2019-03-28T16:23:38.591Z,4.50
2019-03-28T16:26:07.959Z,5.30
2019-03-28T16:28:38.404Z,7.00
2019-03-28T16:31:08.028Z,4.53
2019-03-28T16:33:37.393Z,4.90
2019-03-28T16:36:06.748Z,4.53
2019-03-28T16:38:36.111Z,5.23
2019-03-28T16:41:05.476Z,5.07
2019-03-28T16:43:34.868Z,4.17
2019-03-28T16:46:07.438Z,5.37
2019-03-28T16:48:35.283Z,4.37
2019-03-28T16:51:04.650Z,4.13
2019-03-28T16:53:34.020Z,3.97
2019-03-28T16:56:03.383Z,3.80
2019-03-28T16:58:32.758Z,5.10
2019-03-28T17:01:02.123Z,4.23
2019-03-28T17:03:31.667Z,4.63
2019-03-28T17:06:01.104Z,4.70
2019-03-28T17:08:32.251Z,3.67
2019-03-28T17:11:01.610Z,3.70
2019-03-28T17:13:31.011Z,6.87
2019-03-28T17:16:00.368Z,5.27
2019-03-28T17:18:30.472Z,3.77
2019-03-28T17:21:00.587Z,3.50
2019-03-28T17:23:30.020Z,3.90
2019-03-28T17:25:59.492Z,4.67
2019-03-28T17:28:29.048Z,4.20
2019-03-28T17:30:58.400Z,4.37
2019-03-28T17:33:27.902Z,4.50
2019-03-28T17:35:58.415Z,4.83
2019-03-28T17:38:27.823Z,5.30
2019-03-28T17:40:57.603Z,3.67
2019-03-28T17:43:27.035Z,4.30
2019-03-28T17:45:56.565Z,4.20
2019-03-28T17:48:28.542Z,4.67
2019-03-28T17:50:57.299Z,4.40
2019-03-28T17:53:26.678Z,4.47
2019-03-28T17:55:56.036Z,5.30
2019-03-28T17:58:25.460Z,5.03
2019-03-28T18:00:54.831Z,5.13
2019-03-28T18:03:31.022Z,3.60
2019-03-28T18:05:58.391Z,4.07
2019-03-28T18:08:26.277Z,4.30
2019-03-28T18:10:56.193Z,4.50
2019-03-28T18:13:25.721Z,4.60
2019-03-28T18:15:55.107Z,4.90
2019-03-28T18:18:24.487Z,4.10
2019-03-28T18:20:53.911Z,4.43
2019-03-28T18:23:23.777Z,3.60
2019-03-28T18:25:53.519Z,3.90
2019-03-28T18:28:23.080Z,3.70
2019-03-28T18:30:52.455Z,4.63
2019-03-28T18:33:21.859Z,4.67
2019-03-28T18:35:51.248Z,4.70
2019-03-28T18:38:20.636Z,4.87
2019-03-28T18:40:51.079Z,4.00
2019-03-28T18:43:20.453Z,4.67
2019-03-28T18:45:50.175Z,3.87
2019-03-28T18:48:28.236Z,3.70
2019-03-28T18:50:50.595Z,4.43
2019-03-28T18:53:20.300Z,4.73
2019-03-28T18:55:49.676Z,5.53
2019-03-28T18:58:19.026Z,3.90
2019-03-28T19:00:48.598Z,3.90
2019-03-28T19:03:19.217Z,5.20
2019-03-28T19:05:48.825Z,5.60
2019-03-28T19:08:18.441Z,4.50
2019-03-28T19:10:50.745Z,4.43
2019-03-28T19:13:18.855Z,4.33
2019-03-28T19:15:48.285Z,4.73
2019-03-28T19:18:17.684Z,4.87
2019-03-28T19:20:47.060Z,4.07
2019-03-28T19:23:16.436Z,4.83
2019-03-28T19:25:47.142Z,5.00
2019-03-28T19:28:28.197Z,5.30
2019-03-28T19:30:48.184Z,5.10
2019-03-28T19:33:17.600Z,4.60
2019-03-28T19:35:47.361Z,5.30
2019-03-28T19:38:17.037Z,5.80
2019-03-28T19:40:46.563Z,4.80
2019-03-28T19:43:20.772Z,4.70
2019-03-28T19:45:47.307Z,5.63
2019-03-28T19:48:16.660Z,6.60
2019-03-28T19:50:46.011Z,6.20
2019-03-28T19:53:15.363Z,6.07
2019-03-28T19:55:44.740Z,5.97
2019-03-28T19:58:14.090Z,5.60
2019-03-28T20:00:43.990Z,6.60
2019-03-28T20:03:13.791Z,6.00
2019-03-28T20:05:47.921Z,5.43
2019-03-28T20:08:17.973Z,5.83
2019-03-28T20:10:46.545Z,5.97
2019-03-28T20:13:15.893Z,6.20
2019-03-28T20:15:45.263Z,6.90
2019-03-28T20:18:14.620Z,6.50
2019-03-28T20:20:44.322Z,7.57
2019-03-28T20:23:13.714Z,6.27
2019-03-28T20:25:43.115Z,6.40
2019-03-28T20:28:14.376Z,6.33
2019-03-28T20:30:43.794Z,6.30
2019-03-28T20:33:13.148Z,6.60
2019-03-28T20:35:42.525Z,6.37
2019-03-28T20:38:13.299Z,7.40
2019-03-28T20:40:43.540Z,6.97
2019-03-28T20:43:14.271Z,6.70
2019-03-28T20:45:43.715Z,7.17
2019-03-28T20:48:13.092Z,6.70
2019-03-28T20:50:42.470Z,6.50
2019-03-28T20:53:12.060Z,6.87
2019-03-28T20:55:41.708Z,6.10
2019-03-28T20:58:11.087Z,6.30
2019-03-28T21:00:45.027Z,6.73
2019-03-28T21:03:15.336Z,6.90
2019-03-28T21:05:45.313Z,6.87
2019-03-28T21:08:14.687Z,7.00
2019-03-28T21:10:44.159Z,6.73
2019-03-28T21:13:13.631Z,6.60
2019-03-28T21:15:42.987Z,7.13
2019-03-28T21:18:12.351Z,6.67
2019-03-28T21:20:41.726Z,7.30
2019-03-28T21:23:11.103Z,7.07
2019-03-28T21:25:40.451Z,6.40
2019-03-28T21:28:09.823Z,6.60
2019-03-28T21:30:47.253Z,7.43
2019-03-28T21:33:10.304Z,5.70
2019-03-28T21:35:39.674Z,5.93
2019-03-28T21:38:10.184Z,7.20
2019-03-28T21:40:39.534Z,7.03
2019-03-28T21:43:09.230Z,7.30
2019-03-28T21:45:38.584Z,6.17
2019-03-28T21:48:07.961Z,6.13
2019-03-28T21:50:37.414Z,6.27
2019-03-28T21:53:06.999Z,6.53
2019-03-28T21:55:37.055Z,6.53
2019-03-28T21:58:06.426Z,6.40
2019-03-28T22:00:35.775Z,5.60
2019-03-28T22:03:05.152Z,6.47
2019-03-28T22:05:34.505Z,6.00
2019-03-28T22:08:03.967Z,6.60
2019-03-28T22:10:33.336Z,6.40
2019-03-28T22:13:02.723Z,6.60
2019-03-28T22:15:32.268Z,6.43
2019-03-28T22:18:01.631Z,5.60
2019-03-28T22:20:30.999Z,7.00
2019-03-28T22:23:00.399Z,6.20
2019-03-28T22:25:30.108Z,6.13
2019-03-28T22:27:59.471Z,6.33
2019-03-28T22:30:28.834Z,12.57
2019-03-28T22:32:58.447Z,6.60
2019-03-28T22:35:27.803Z,6.70
2019-03-28T22:37:57.299Z,6.50
2019-03-28T22:40:26.650Z,5.90
2019-03-28T22:42:56.007Z,7.07
2019-03-28T22:45:25.359Z,6.53
2019-03-28T22:47:55.051Z,6.83
2019-03-28T22:50:24.393Z,7.03
2019-03-28T22:52:53.759Z,7.40
2019-03-28T22:55:23.117Z,7.80
2019-03-28T22:57:54.011Z,7.63
2019-03-28T23:00:28.499Z,6.90
2019-03-28T23:02:59.473Z,7.50
2019-03-28T23:05:28.836Z,7.10
2019-03-28T23:07:58.206Z,8.20
2019-03-28T23:10:27.554Z,7.53
2019-03-28T23:12:56.928Z,7.87
2019-03-28T23:15:26.289Z,7.63
2019-03-28T23:17:55.703Z,7.43
2019-03-28T23:20:25.132Z,7.97
2019-03-28T23:22:54.499Z,8.23
2019-03-28T23:25:23.891Z,8.10
2019-03-28T23:27:53.270Z,7.17
2019-03-28T23:30:22.627Z,8.27
2019-03-28T23:32:52.295Z,7.77
2019-03-28T23:35:21.832Z,7.40
2019-03-28T23:37:51.204Z,7.47
2019-03-28T23:40:20.599Z,6.87
2019-03-28T23:42:49.951Z,6.60
2019-03-28T23:45:19.797Z,6.63
2019-03-28T23:47:49.528Z,6.60
2019-03-28T23:50:18.995Z,6.00
2019-03-28T23:52:48.344Z,7.93
2019-03-28T23:55:18.808Z,7.37
2019-03-28T23:57:48.367Z,7.03
